sensor_id;sensor_type;location;lat;lon;timestamp;pressure;altitude;pressure_sealevel;temperature;humidity
9523;BME280;63165;43.016;25.784;2023-10-31T00:01:39;100147.09;;;12.86;85.67
9523;BME280;63165;43.016;25.784;2023-10-31T00:04:06;100151.50;;;12.86;85.98
9523;BME280;63165;43.016;25.784;2023-10-31T00:06:33;100120.88;;;12.85;85.72
9523;BME280;63165;43.016;25.784;2023-10-31T00:09:02;100145.38;;;12.85;86.18
9523;BME280;63165;43.016;25.784;2023-10-31T00:11:29;100134.00;;;12.85;86.42
9523;BME280;63165;43.016;25.784;2023-10-31T00:13:57;100120.94;;;12.83;86.49
9523;BME280;63165;43.016;25.784;2023-10-31T00:16:24;100119.31;;;12.77;87.03
9523;BME280;63165;43.016;25.784;2023-10-31T00:18:51;100111.63;;;12.70;87.27
9523;BME280;63165;43.016;25.784;2023-10-31T00:21:19;100113.50;;;12.65;87.16
9523;BME280;63165;43.016;25.784;2023-10-31T00:23:47;100108.09;;;12.71;87.36
9523;BME280;63165;43.016;25.784;2023-10-31T00:26:15;100113.41;;;12.68;87.45
9523;BME280;63165;43.016;25.784;2023-10-31T00:28:43;100104.88;;;12.59;87.83
9523;BME280;63165;43.016;25.784;2023-10-31T00:31:10;100092.72;;;12.55;87.97
9523;BME280;63165;43.016;25.784;2023-10-31T00:33:37;100112.13;;;12.48;88.66
9523;BME280;63165;43.016;25.784;2023-10-31T00:36:04;100104.44;;;12.42;88.71
9523;BME280;63165;43.016;25.784;2023-10-31T00:38:32;100098.56;;;12.31;89.60
9523;BME280;63165;43.016;25.784;2023-10-31T00:40:59;100106.56;;;12.23;90.24
9523;BME280;63165;43.016;25.784;2023-10-31T00:43:28;100090.06;;;12.19;90.32
9523;BME280;63165;43.016;25.784;2023-10-31T00:45:55;100088.31;;;12.20;90.50
9523;BME280;63165;43.016;25.784;2023-10-31T00:48:22;100097.19;;;12.14;90.24
9523;BME280;63165;43.016;25.784;2023-10-31T00:50:49;100103.28;;;12.15;90.86
9523;BME280;63165;43.016;25.784;2023-10-31T00:53:16;100088.41;;;12.14;90.39
9523;BME280;63165;43.016;25.784;2023-10-31T00:55:43;100065.94;;;12.03;91.94
9523;BME280;63165;43.016;25.784;2023-10-31T00:58:11;100075.56;;;12.03;91.22
9523;BME280;63165;43.016;25.784;2023-10-31T01:00:40;100082.53;;;12.04;91.73
9523;BME280;63165;43.016;25.784;2023-10-31T01:03:07;100069.34;;;12.07;91.64
9523;BME280;63165;43.016;25.784;2023-10-31T01:05:34;100068.31;;;12.14;91.40
9523;BME280;63165;43.016;25.784;2023-10-31T01:08:02;100068.38;;;12.11;91.21
9523;BME280;63165;43.016;25.784;2023-10-31T01:10:29;100047.34;;;12.14;91.33
9523;BME280;63165;43.016;25.784;2023-10-31T01:12:56;100064.81;;;12.14;91.20
9523;BME280;63165;43.016;25.784;2023-10-31T01:15:23;100058.63;;;12.18;91.50
9523;BME280;63165;43.016;25.784;2023-10-31T01:17:52;100050.75;;;12.18;91.61
9523;BME280;63165;43.016;25.784;2023-10-31T01:20:19;100047.41;;;12.11;90.99
9523;BME280;63165;43.016;25.784;2023-10-31T01:22:47;100044.06;;;12.04;91.47
9523;BME280;63165;43.016;25.784;2023-10-31T01:25:15;100058.09;;;12.02;91.11
9523;BME280;63165;43.016;25.784;2023-10-31T01:27:42;100045.13;;;11.96;90.76
9523;BME280;63165;43.016;25.784;2023-10-31T01:30:10;100054.84;;;11.91;91.28
9523;BME280;63165;43.016;25.784;2023-10-31T01:32:38;100047.94;;;11.87;91.53
9523;BME280;63165;43.016;25.784;2023-10-31T01:35:07;100041.00;;;11.84;91.46
9523;BME280;63165;43.016;25.784;2023-10-31T01:37:34;100038.44;;;11.81;91.59
9523;BME280;63165;43.016;25.784;2023-10-31T01:40:02;100055.13;;;11.78;92.24
9523;BME280;63165;43.016;25.784;2023-10-31T01:42:30;100036.88;;;11.72;92.04
9523;BME280;63165;43.016;25.784;2023-10-31T01:44:57;100045.63;;;11.73;92.03
9523;BME280;63165;43.016;25.784;2023-10-31T01:47:24;100041.28;;;11.70;92.35
9523;BME280;63165;43.016;25.784;2023-10-31T01:49:52;100031.97;;;11.57;92.86
9523;BME280;63165;43.016;25.784;2023-10-31T01:52:21;100045.06;;;11.57;92.68
9523;BME280;63165;43.016;25.784;2023-10-31T01:54:49;100037.88;;;11.66;93.21
9523;BME280;63165;43.016;25.784;2023-10-31T01:57:19;100044.09;;;11.61;93.02
9523;BME280;63165;43.016;25.784;2023-10-31T01:59:48;100029.22;;;11.61;92.74
9523;BME280;63165;43.016;25.784;2023-10-31T02:02:16;100038.09;;;11.56;93.41
9523;BME280;63165;43.016;25.784;2023-10-31T02:04:44;100024.97;;;11.56;93.84
9523;BME280;63165;43.016;25.784;2023-10-31T02:07:11;100017.13;;;11.56;94.00
9523;BME280;63165;43.016;25.784;2023-10-31T02:09:40;100025.75;;;11.61;93.12
9523;BME280;63165;43.016;25.784;2023-10-31T02:12:07;100020.50;;;11.62;93.51
9523;BME280;63165;43.016;25.784;2023-10-31T02:14:35;100021.28;;;11.66;93.81
9523;BME280;63165;43.016;25.784;2023-10-31T02:17:02;100036.19;;;11.64;93.24
9523;BME280;63165;43.016;25.784;2023-10-31T02:19:30;100007.31;;;11.67;93.41
9523;BME280;63165;43.016;25.784;2023-10-31T02:21:59;100031.84;;;11.61;93.30
9523;BME280;63165;43.016;25.784;2023-10-31T02:24:26;100007.72;;;11.47;94.26
9523;BME280;63165;43.016;25.784;2023-10-31T02:26:54;100010.41;;;11.44;95.00
9523;BME280;63165;43.016;25.784;2023-10-31T02:29:23;100020.81;;;11.47;94.99
9523;BME280;63165;43.016;25.784;2023-10-31T02:31:50;100029.53;;;11.48;94.97
9523;BME280;63165;43.016;25.784;2023-10-31T02:34:18;99985.00;;;11.48;94.35
9523;BME280;63165;43.016;25.784;2023-10-31T02:36:45;100034.88;;;11.43;95.01
9523;BME280;63165;43.016;25.784;2023-10-31T02:39:14;100019.28;;;11.37;96.23
9523;BME280;63165;43.016;25.784;2023-10-31T02:41:42;100022.81;;;11.36;97.13
9523;BME280;63165;43.016;25.784;2023-10-31T02:44:09;100010.56;;;11.36;97.17
9523;BME280;63165;43.016;25.784;2023-10-31T02:46:37;100025.25;;;11.43;97.54
9523;BME280;63165;43.016;25.784;2023-10-31T02:49:05;100014.72;;;11.46;96.72
9523;BME280;63165;43.016;25.784;2023-10-31T02:51:34;100007.84;;;11.41;96.91
9523;BME280;63165;43.016;25.784;2023-10-31T02:54:02;100022.53;;;11.48;96.91
9523;BME280;63165;43.016;25.784;2023-10-31T02:56:31;100022.53;;;11.48;97.17
9523;BME280;63165;43.016;25.784;2023-10-31T02:58:59;100017.22;;;11.51;97.11
9523;BME280;63165;43.016;25.784;2023-10-31T03:01:28;100019.75;;;11.56;97.20
9523;BME280;63165;43.016;25.784;2023-10-31T03:03:56;100019.72;;;11.57;97.32
9523;BME280;63165;43.016;25.784;2023-10-31T03:06:23;100029.34;;;11.57;96.83
9523;BME280;63165;43.016;25.784;2023-10-31T03:08:50;100025.06;;;11.53;96.87
9523;BME280;63165;43.016;25.784;2023-10-31T03:11:22;100032.06;;;11.52;96.61
9523;BME280;63165;43.016;25.784;2023-10-31T03:13:51;100032.91;;;11.54;96.66
9523;BME280;63165;43.016;25.784;2023-10-31T03:16:19;100038.97;;;11.56;96.57
9523;BME280;63165;43.016;25.784;2023-10-31T03:18:47;100023.97;;;11.63;95.49
9523;BME280;63165;43.016;25.784;2023-10-31T03:21:15;100023.91;;;11.66;95.38
9523;BME280;63165;43.016;25.784;2023-10-31T03:23:45;100021.34;;;11.63;95.31
9523;BME280;63165;43.016;25.784;2023-10-31T03:26:13;100035.41;;;11.59;95.35
9523;BME280;63165;43.016;25.784;2023-10-31T03:28:42;100010.13;;;11.58;95.58
9523;BME280;63165;43.016;25.784;2023-10-31T03:31:12;100018.84;;;11.58;95.38
9523;BME280;63165;43.016;25.784;2023-10-31T03:33:40;100009.16;;;11.62;94.78
9523;BME280;63165;43.016;25.784;2023-10-31T03:36:08;100017.00;;;11.62;94.61
9523;BME280;63165;43.016;25.784;2023-10-31T03:38:36;100013.50;;;11.61;94.87
9523;BME280;63165;43.016;25.784;2023-10-31T03:41:04;100020.44;;;11.65;94.21
9523;BME280;63165;43.016;25.784;2023-10-31T03:43:31;100021.28;;;11.66;93.81
9523;BME280;63165;43.016;25.784;2023-10-31T03:45:59;100009.13;;;11.63;94.11
9523;BME280;63165;43.016;25.784;2023-10-31T03:48:29;100013.44;;;11.66;93.44
9523;BME280;63165;43.016;25.784;2023-10-31T03:50:57;100005.66;;;11.61;93.43
9523;BME280;63165;43.016;25.784;2023-10-31T03:53:24;100004.81;;;11.59;93.31
9523;BME280;63165;43.016;25.784;2023-10-31T03:55:52;100002.25;;;11.58;93.16
9523;BME280;63165;43.016;25.784;2023-10-31T03:58:19;100002.28;;;11.56;93.44
9523;BME280;63165;43.016;25.784;2023-10-31T04:00:47;100007.69;;;11.49;93.45
9523;BME280;63165;43.016;25.784;2023-10-31T04:03:15;99993.66;;;11.51;93.79
9523;BME280;63165;43.016;25.784;2023-10-31T04:05:44;99988.44;;;11.50;93.51
9523;BME280;63165;43.016;25.784;2023-10-31T04:08:12;99998.22;;;11.43;93.34
9523;BME280;63165;43.016;25.784;2023-10-31T04:10:39;99994.78;;;11.39;93.91
9523;BME280;63165;43.016;25.784;2023-10-31T04:13:06;99995.75;;;11.35;93.93
9523;BME280;63165;43.016;25.784;2023-10-31T04:15:34;99998.41;;;11.34;94.90
9523;BME280;63165;43.016;25.784;2023-10-31T04:18:02;99993.25;;;11.29;94.52
9523;BME280;63165;43.016;25.784;2023-10-31T04:20:29;99986.22;;;11.30;94.41
9523;BME280;63165;43.016;25.784;2023-10-31T04:22:58;99997.63;;;11.29;93.95
9523;BME280;63165;43.016;25.784;2023-10-31T04:25:26;99993.41;;;11.20;94.08
9523;BME280;63165;43.016;25.784;2023-10-31T04:27:55;99993.44;;;11.18;94.15
9523;BME280;63165;43.016;25.784;2023-10-31T04:30:22;99986.50;;;11.17;93.64
9523;BME280;63165;43.016;25.784;2023-10-31T04:32:49;100004.16;;;11.07;94.38
9523;BME280;63165;43.016;25.784;2023-10-31T04:35:17;99989.34;;;11.05;94.68
9523;BME280;63165;43.016;25.784;2023-10-31T04:37:45;100002.53;;;11.02;95.04
9523;BME280;63165;43.016;25.784;2023-10-31T04:40:14;99990.22;;;11.05;95.24
9523;BME280;63165;43.016;25.784;2023-10-31T04:42:42;100001.56;;;11.06;94.95
9523;BME280;63165;43.016;25.784;2023-10-31T04:45:10;99979.75;;;11.05;95.01
9523;BME280;63165;43.016;25.784;2023-10-31T04:47:37;99978.84;;;11.06;94.69
9523;BME280;63165;43.016;25.784;2023-10-31T04:50:05;99984.13;;;11.05;94.58
9523;BME280;63165;43.016;25.784;2023-10-31T04:52:32;99990.16;;;11.08;94.53
9523;BME280;63165;43.016;25.784;2023-10-31T04:55:00;99983.22;;;11.06;94.48
9523;BME280;63165;43.016;25.784;2023-10-31T04:57:29;99995.50;;;11.04;94.27
9523;BME280;63165;43.016;25.784;2023-10-31T04:59:56;99992.84;;;11.05;94.23
9523;BME280;63165;43.016;25.784;2023-10-31T05:02:24;99995.38;;;11.08;93.93
9523;BME280;63165;43.016;25.784;2023-10-31T05:04:52;99984.22;;;11.00;94.29
9523;BME280;63165;43.016;25.784;2023-10-31T05:07:20;99999.94;;;11.00;94.50
9523;BME280;63165;43.016;25.784;2023-10-31T05:09:47;99990.44;;;10.95;94.42
9523;BME280;63165;43.016;25.784;2023-10-31T05:12:17;99992.06;;;11.00;94.31
9523;BME280;63165;43.016;25.784;2023-10-31T05:14:46;99995.69;;;10.93;94.15
9523;BME280;63165;43.016;25.784;2023-10-31T05:17:15;99981.66;;;10.97;94.34
9523;BME280;63165;43.016;25.784;2023-10-31T05:19:43;99992.97;;;10.98;94.62
9523;BME280;63165;43.016;25.784;2023-10-31T05:22:10;99993.06;;;10.95;94.53
9523;BME280;63165;43.016;25.784;2023-10-31T05:24:37;99989.50;;;10.97;94.56
9523;BME280;63165;43.016;25.784;2023-10-31T05:27:05;99996.50;;;10.97;94.98
9523;BME280;63165;43.016;25.784;2023-10-31T05:29:33;99986.06;;;10.95;94.97
9523;BME280;63165;43.016;25.784;2023-10-31T05:32:03;99996.44;;;11.00;95.35
9523;BME280;63165;43.016;25.784;2023-10-31T05:34:29;100005.13;;;11.02;95.33
9523;BME280;63165;43.016;25.784;2023-10-31T05:36:57;99987.72;;;10.99;95.23
9523;BME280;63165;43.016;25.784;2023-10-31T05:39:24;100005.03;;;11.06;95.78
9523;BME280;63165;43.016;25.784;2023-10-31T05:41:52;99990.09;;;11.12;96.17
9523;BME280;63165;43.016;25.784;2023-10-31T05:44:19;100010.03;;;11.19;95.95
9523;BME280;63165;43.016;25.784;2023-10-31T05:46:47;100001.91;;;11.33;95.97
9523;BME280;63165;43.016;25.784;2023-10-31T05:49:16;99999.13;;;11.40;96.41
9523;BME280;63165;43.016;25.784;2023-10-31T05:51:50;100007.78;;;11.42;96.30
9523;BME280;63165;43.016;25.784;2023-10-31T05:54:17;100003.19;;;11.54;96.09
9523;BME280;63165;43.016;25.784;2023-10-31T05:56:45;100010.84;;;11.63;96.64
9523;BME280;63165;43.016;25.784;2023-10-31T05:59:19;100009.81;;;11.72;96.21
9523;BME280;63165;43.016;25.784;2023-10-31T06:01:50;99995.47;;;11.90;96.65
9523;BME280;63165;43.016;25.784;2023-10-31T06:04:19;100015.38;;;11.97;96.89
9523;BME280;63165;43.016;25.784;2023-10-31T06:06:46;99997.63;;;12.08;96.63
9523;BME280;63165;43.016;25.784;2023-10-31T06:09:14;100007.78;;;12.23;96.48
9523;BME280;63165;43.016;25.784;2023-10-31T06:11:42;100004.81;;;12.37;95.82
9523;BME280;63165;43.016;25.784;2023-10-31T06:14:10;99998.38;;;12.49;95.44
9523;BME280;63165;43.016;25.784;2023-10-31T06:16:43;99998.81;;;12.68;95.66
9523;BME280;63165;43.016;25.784;2023-10-31T06:19:11;100008.97;;;12.80;95.81
9523;BME280;63165;43.016;25.784;2023-10-31T06:21:40;100002.44;;;12.95;96.57
9523;BME280;63165;43.016;25.784;2023-10-31T06:24:11;99989.69;;;13.13;96.22
9523;BME280;63165;43.016;25.784;2023-10-31T06:26:41;99998.91;;;13.28;96.30
9523;BME280;63165;43.016;25.784;2023-10-31T06:29:20;99991.59;;;13.39;97.06
9523;BME280;63165;43.016;25.784;2023-10-31T06:32:06;99982.94;;;13.65;96.48
9523;BME280;63165;43.016;25.784;2023-10-31T06:34:40;99991.28;;;13.79;96.18
9523;BME280;63165;43.016;25.784;2023-10-31T06:37:08;99998.56;;;14.00;96.93
9523;BME280;63165;43.016;25.784;2023-10-31T06:39:35;99981.00;;;14.27;96.85
9523;BME280;63165;43.016;25.784;2023-10-31T06:42:02;99990.97;;;14.44;95.55
9523;BME280;63165;43.016;25.784;2023-10-31T06:44:29;99971.00;;;14.65;95.11
9523;BME280;63165;43.016;25.784;2023-10-31T06:46:57;99985.19;;;14.86;94.37
9523;BME280;63165;43.016;25.784;2023-10-31T06:49:24;99989.75;;;15.06;93.69
9523;BME280;63165;43.016;25.784;2023-10-31T06:51:51;99979.03;;;15.34;93.28
9523;BME280;63165;43.016;25.784;2023-10-31T06:54:20;99983.44;;;15.57;91.90
9523;BME280;63165;43.016;25.784;2023-10-31T06:56:48;99980.91;;;15.78;90.98
9523;BME280;63165;43.016;25.784;2023-10-31T06:59:15;99992.53;;;15.96;90.69
9523;BME280;63165;43.016;25.784;2023-10-31T07:01:42;99975.03;;;16.15;89.53
9523;BME280;63165;43.016;25.784;2023-10-31T07:04:12;99977.97;;;16.29;88.61
9523;BME280;63165;43.016;25.784;2023-10-31T07:06:40;99989.06;;;16.38;88.54
9523;BME280;63165;43.016;25.784;2023-10-31T07:09:07;99985.59;;;16.58;88.38
9523;BME280;63165;43.016;25.784;2023-10-31T07:11:36;99974.28;;;16.75;87.61
9523;BME280;63165;43.016;25.784;2023-10-31T07:14:04;99968.69;;;17.03;86.69
9523;BME280;63165;43.016;25.784;2023-10-31T07:16:32;99969.91;;;17.15;86.10
9523;BME280;63165;43.016;25.784;2023-10-31T07:19:05;99965.28;;;17.39;85.08
9523;BME280;63165;43.016;25.784;2023-10-31T07:21:33;99974.38;;;17.52;84.03
9523;BME280;63165;43.016;25.784;2023-10-31T07:24:00;99966.84;;;17.81;83.80
9523;BME280;63165;43.016;25.784;2023-10-31T07:26:27;99970.28;;;18.02;83.20
9523;BME280;63165;43.016;25.784;2023-10-31T07:28:56;99950.97;;;18.17;81.83
9523;BME280;63165;43.016;25.784;2023-10-31T07:31:24;99957.09;;;18.37;81.04
9523;BME280;63165;43.016;25.784;2023-10-31T07:33:51;99951.16;;;18.67;80.08
9523;BME280;63165;43.016;25.784;2023-10-31T07:36:21;99942.47;;;18.98;78.44
9523;BME280;63165;43.016;25.784;2023-10-31T07:38:49;99941.13;;;19.23;76.29
9523;BME280;63165;43.016;25.784;2023-10-31T07:41:16;99945.88;;;19.49;75.13
9523;BME280;63165;43.016;25.784;2023-10-31T07:43:44;99963.44;;;19.68;74.76
9523;BME280;63165;43.016;25.784;2023-10-31T07:46:12;99952.16;;;19.80;73.74
9523;BME280;63165;43.016;25.784;2023-10-31T07:48:40;99941.84;;;20.06;71.83
9523;BME280;63165;43.016;25.784;2023-10-31T07:51:07;99928.84;;;20.31;70.82
9523;BME280;63165;43.016;25.784;2023-10-31T07:53:37;99919.88;;;20.48;69.72
9523;BME280;63165;43.016;25.784;2023-10-31T07:56:05;99911.84;;;20.64;68.65
9523;BME280;63165;43.016;25.784;2023-10-31T07:58:32;99924.50;;;20.89;67.74
9523;BME280;63165;43.016;25.784;2023-10-31T08:01:00;99927.66;;;21.10;67.69
9523;BME280;63165;43.016;25.784;2023-10-31T08:03:29;99923.91;;;21.27;66.25
9523;BME280;63165;43.016;25.784;2023-10-31T08:05:56;99912.03;;;21.33;65.25
9523;BME280;63165;43.016;25.784;2023-10-31T08:08:25;99908.63;;;21.45;63.67
9523;BME280;63165;43.016;25.784;2023-10-31T08:10:53;99917.22;;;21.63;62.07
9523;BME280;63165;43.016;25.784;2023-10-31T08:13:20;99893.31;;;21.76;60.62
9523;BME280;63165;43.016;25.784;2023-10-31T08:15:48;99883.56;;;21.89;58.80
9523;BME280;63165;43.016;25.784;2023-10-31T08:18:16;99890.22;;;22.09;57.09
9523;BME280;63165;43.016;25.784;2023-10-31T08:20:45;99885.88;;;22.21;57.17
9523;BME280;63165;43.016;25.784;2023-10-31T08:23:15;99873.97;;;22.40;54.14
9523;BME280;63165;43.016;25.784;2023-10-31T08:25:42;99885.31;;;22.69;50.35
9523;BME280;63165;43.016;25.784;2023-10-31T08:28:10;99889.31;;;23.00;48.27
9523;BME280;63165;43.016;25.784;2023-10-31T08:30:37;99867.63;;;23.31;45.26
9523;BME280;63165;43.016;25.784;2023-10-31T08:33:05;99861.75;;;23.62;43.66
9523;BME280;63165;43.016;25.784;2023-10-31T08:35:33;99864.28;;;23.88;42.08
9523;BME280;63165;43.016;25.784;2023-10-31T08:38:20;99867.31;;;24.19;41.41
9523;BME280;63165;43.016;25.784;2023-10-31T08:47:16;99842.63;;;24.96;37.74
9523;BME280;63165;43.016;25.784;2023-10-31T08:49:50;99832.75;;;25.08;36.92
9523;BME280;63165;43.016;25.784;2023-10-31T08:52:26;99840.75;;;25.19;36.82
9523;BME280;63165;43.016;25.784;2023-10-31T08:58:11;99832.28;;;25.57;34.84
9523;BME280;63165;43.016;25.784;2023-10-31T09:01:07;99826.03;;;25.68;34.48
9523;BME280;63165;43.016;25.784;2023-10-31T09:06:47;99807.97;;;25.82;34.10
9523;BME280;63165;43.016;25.784;2023-10-31T09:09:17;99796.97;;;25.85;33.37
9523;BME280;63165;43.016;25.784;2023-10-31T09:11:45;99778.44;;;25.93;32.71
9523;BME280;63165;43.016;25.784;2023-10-31T09:14:13;99773.25;;;26.01;32.56
9523;BME280;63165;43.016;25.784;2023-10-31T09:16:54;99771.03;;;26.06;32.33
9523;BME280;63165;43.016;25.784;2023-10-31T09:19:38;99764.19;;;26.13;31.75
9523;BME280;63165;43.016;25.784;2023-10-31T09:22:09;99775.78;;;26.24;31.23
9523;BME280;63165;43.016;25.784;2023-10-31T09:24:36;99758.91;;;26.33;31.38
9523;BME280;63165;43.016;25.784;2023-10-31T09:27:06;99738.31;;;26.33;30.90
9523;BME280;63165;43.016;25.784;2023-10-31T09:29:35;99746.66;;;26.40;30.94
9523;BME280;63165;43.016;25.784;2023-10-31T09:32:07;99731.00;;;26.45;31.30
9523;BME280;63165;43.016;25.784;2023-10-31T09:34:35;99745.72;;;26.51;30.30
9523;BME280;63165;43.016;25.784;2023-10-31T09:37:14;99736.41;;;26.55;29.27
9523;BME280;63165;43.016;25.784;2023-10-31T09:39:46;99719.09;;;26.69;29.50
9523;BME280;63165;43.016;25.784;2023-10-31T09:42:14;99705.69;;;26.69;29.07
9523;BME280;63165;43.016;25.784;2023-10-31T09:44:43;99703.03;;;26.88;29.12
9523;BME280;63165;43.016;25.784;2023-10-31T09:47:30;99694.16;;;26.98;28.53
9523;BME280;63165;43.016;25.784;2023-10-31T09:49:59;99701.78;;;27.02;27.75
9523;BME280;63165;43.016;25.784;2023-10-31T09:52:28;99680.88;;;27.06;27.54
9523;BME280;63165;43.016;25.784;2023-10-31T09:54:56;99685.69;;;27.12;27.67
9523;BME280;63165;43.016;25.784;2023-10-31T09:57:30;99664.63;;;27.17;27.62
9523;BME280;63165;43.016;25.784;2023-10-31T09:59:58;99672.41;;;27.20;27.19
9523;BME280;63165;43.016;25.784;2023-10-31T10:02:28;99663.06;;;27.24;26.85
9523;BME280;63165;43.016;25.784;2023-10-31T10:05:00;99654.63;;;27.29;27.13
9523;BME280;63165;43.016;25.784;2023-10-31T10:07:29;99665.63;;;27.36;26.27
9523;BME280;63165;43.016;25.784;2023-10-31T10:09:57;99654.88;;;27.36;25.43
9523;BME280;63165;43.016;25.784;2023-10-31T10:12:31;99653.72;;;27.38;25.82
9523;BME280;63165;43.016;25.784;2023-10-31T10:15:03;99648.09;;;27.41;26.55
9523;BME280;63165;43.016;25.784;2023-10-31T10:17:36;99656.81;;;27.53;26.33
9523;BME280;63165;43.016;25.784;2023-10-31T10:20:29;99668.28;;;27.45;26.04
9523;BME280;63165;43.016;25.784;2023-10-31T10:23:10;99653.28;;;27.53;26.39
9523;BME280;63165;43.016;25.784;2023-10-31T10:29:19;99632.88;;;27.69;26.87
9523;BME280;63165;43.016;25.784;2023-10-31T10:32:01;99639.84;;;27.62;26.69
9523;BME280;63165;43.016;25.784;2023-10-31T10:35:08;99634.19;;;27.65;26.74
9523;BME280;63165;43.016;25.784;2023-10-31T10:38:23;99631.59;;;27.83;26.15
9523;BME280;63165;43.016;25.784;2023-10-31T10:41:22;99630.03;;;27.81;26.15
9523;BME280;63165;43.016;25.784;2023-10-31T10:47:27;99616.84;;;27.97;26.16
9523;BME280;63165;43.016;25.784;2023-10-31T10:50:28;99617.94;;;28.04;24.92
9523;BME280;63165;43.016;25.784;2023-10-31T10:53:20;99602.59;;;28.15;25.19
9523;BME280;63165;43.016;25.784;2023-10-31T10:55:59;99599.88;;;28.15;25.06
9523;BME280;63165;43.016;25.784;2023-10-31T10:59:02;99592.53;;;28.17;24.81
9523;BME280;63165;43.016;25.784;2023-10-31T11:01:41;99599.00;;;28.24;24.69
9523;BME280;63165;43.016;25.784;2023-10-31T11:04:11;99595.03;;;28.28;24.52
9523;BME280;63165;43.016;25.784;2023-10-31T11:06:53;99598.97;;;28.34;24.00
9523;BME280;63165;43.016;25.784;2023-10-31T11:09:29;99584.78;;;28.32;23.45
9523;BME280;63165;43.016;25.784;2023-10-31T11:12:18;99599.19;;;28.40;23.38
9523;BME280;63165;43.016;25.784;2023-10-31T11:15:07;99575.81;;;28.41;23.32
9523;BME280;63165;43.016;25.784;2023-10-31T11:17:39;99573.81;;;28.43;22.50
9523;BME280;63165;43.016;25.784;2023-10-31T11:20:13;99568.41;;;28.43;22.71
9523;BME280;63165;43.016;25.784;2023-10-31T11:22:44;99556.19;;;28.49;22.08
9523;BME280;63165;43.016;25.784;2023-10-31T11:25:17;99563.75;;;28.45;21.89
9523;BME280;63165;43.016;25.784;2023-10-31T11:27:49;99559.91;;;28.48;22.84
9523;BME280;63165;43.016;25.784;2023-10-31T11:30:22;99568.09;;;28.56;22.47
9523;BME280;63165;43.016;25.784;2023-10-31T11:32:54;99541.63;;;28.51;22.32
9523;BME280;63165;43.016;25.784;2023-10-31T11:35:22;99545.28;;;28.60;22.69
9523;BME280;63165;43.016;25.784;2023-10-31T11:38:03;99545.41;;;28.58;22.74
9523;BME280;63165;43.016;25.784;2023-10-31T11:40:35;99549.47;;;28.62;22.15
9523;BME280;63165;43.016;25.784;2023-10-31T11:43:04;99543.94;;;28.64;21.71
9523;BME280;63165;43.016;25.784;2023-10-31T11:45:35;99544.84;;;28.73;21.86
9523;BME280;63165;43.016;25.784;2023-10-31T11:48:04;99531.94;;;28.76;21.09
9523;BME280;63165;43.016;25.784;2023-10-31T11:50:32;99536.03;;;28.80;21.47
9523;BME280;63165;43.016;25.784;2023-10-31T11:53:02;99531.63;;;28.79;21.08
9523;BME280;63165;43.016;25.784;2023-10-31T11:55:32;99524.38;;;28.80;21.43
9523;BME280;63165;43.016;25.784;2023-10-31T11:58:18;99528.44;;;28.84;21.76
9523;BME280;63165;43.016;25.784;2023-10-31T12:00:47;99525.16;;;28.90;21.84
9523;BME280;63165;43.016;25.784;2023-10-31T12:03:15;99526.16;;;28.89;21.77
9523;BME280;63165;43.016;25.784;2023-10-31T12:05:51;99520.59;;;28.91;21.59
9523;BME280;63165;43.016;25.784;2023-10-31T12:08:27;99515.91;;;28.93;21.87
9523;BME280;63165;43.016;25.784;2023-10-31T12:11:04;99517.44;;;28.95;21.70
9523;BME280;63165;43.016;25.784;2023-10-31T12:13:31;99506.34;;;28.98;22.03
9523;BME280;63165;43.016;25.784;2023-10-31T12:15:59;99505.91;;;29.03;21.90
9523;BME280;63165;43.016;25.784;2023-10-31T12:18:27;99501.50;;;29.02;21.72
9523;BME280;63165;43.016;25.784;2023-10-31T12:20:55;99514.97;;;29.02;21.51
9523;BME280;63165;43.016;25.784;2023-10-31T12:23:23;99506.88;;;29.02;20.96
9523;BME280;63165;43.016;25.784;2023-10-31T12:25:52;99503.50;;;29.00;20.87
9523;BME280;63165;43.016;25.784;2023-10-31T12:28:20;99509.72;;;29.00;20.63
9523;BME280;63165;43.016;25.784;2023-10-31T12:30:49;99503.81;;;28.97;21.01
9523;BME280;63165;43.016;25.784;2023-10-31T12:33:17;99503.47;;;28.92;20.88
9523;BME280;63165;43.016;25.784;2023-10-31T12:35:45;99497.84;;;28.85;20.91
9523;BME280;63165;43.016;25.784;2023-10-31T12:38:14;99501.03;;;28.80;21.69
9523;BME280;63165;43.016;25.784;2023-10-31T12:40:43;99506.81;;;28.68;21.67
9523;BME280;63165;43.016;25.784;2023-10-31T12:43:13;99478.56;;;28.72;21.77
9523;BME280;63165;43.016;25.784;2023-10-31T12:45:40;99487.09;;;28.67;21.92
9523;BME280;63165;43.016;25.784;2023-10-31T12:48:11;99492.13;;;28.62;21.89
9523;BME280;63165;43.016;25.784;2023-10-31T12:50:46;99494.63;;;28.45;22.63
9523;BME280;63165;43.016;25.784;2023-10-31T12:53:31;99487.34;;;28.38;22.74
9523;BME280;63165;43.016;25.784;2023-10-31T12:56:09;99455.81;;;28.30;22.63
9523;BME280;63165;43.016;25.784;2023-10-31T12:59:15;99482.19;;;28.26;23.04
9523;BME280;63165;43.016;25.784;2023-10-31T13:01:46;99473.25;;;28.26;23.51
9523;BME280;63165;43.016;25.784;2023-10-31T13:04:33;99461.25;;;28.20;23.23
9523;BME280;63165;43.016;25.784;2023-10-31T13:07:06;99459.34;;;28.13;23.64
9523;BME280;63165;43.016;25.784;2023-10-31T13:09:40;99464.56;;;27.96;23.19
9523;BME280;63165;43.016;25.784;2023-10-31T13:12:12;99457.22;;;27.88;23.53
9523;BME280;63165;43.016;25.784;2023-10-31T13:14:41;99468.88;;;27.79;23.73
9523;BME280;63165;43.016;25.784;2023-10-31T13:17:11;99457.19;;;27.71;23.67
9523;BME280;63165;43.016;25.784;2023-10-31T13:19:43;99463.31;;;27.63;24.22
9523;BME280;63165;43.016;25.784;2023-10-31T13:22:13;99463.00;;;27.66;24.75
9523;BME280;63165;43.016;25.784;2023-10-31T13:24:41;99455.47;;;27.52;24.41
9523;BME280;63165;43.016;25.784;2023-10-31T13:27:11;99461.59;;;27.44;24.41
9523;BME280;63165;43.016;25.784;2023-10-31T13:29:44;99456.50;;;27.41;24.40
9523;BME280;63165;43.016;25.784;2023-10-31T13:32:15;99456.94;;;27.36;24.67
9523;BME280;63165;43.016;25.784;2023-10-31T13:34:48;99455.69;;;27.30;24.38